Time;durP1;ratioP1;P1;durP2;ratioP2;P2;SDS_P1;SDS_P2;PMS_P1;PMS_P2;Temp;Humidity;BMP_temperature;BMP_pressure;BME280_temperature;BME280_humidity;BME280_pressure;Samples;Min_cycle;Max_cycle;Signal;HPM_P1;HPM_P2
2021/01/06 00:02:11;;;;;;;53.90;18.30;;;;;;;0.54;99.97;95664.31;5048003;28;20080;-46
2021/01/06 00:04:38;;;;;;;55.58;19.67;;;;;;;0.44;100.00;95664.09;5044294;28;20139;-45
2021/01/06 00:07:05;;;;;;;52.25;19.50;;;;;;;0.43;100.00;95672.00;5043357;28;20524;-47
2021/01/06 00:09:32;;;;;;;54.50;18.73;;;;;;;0.39;100.00;95671.38;5045371;28;20037;-46
2021/01/06 00:11:59;;;;;;;55.75;20.67;;;;;;;0.28;100.00;95668.66;5036040;28;20545;-49
2021/01/06 00:14:26;;;;;;;55.72;20.02;;;;;;;0.28;100.00;95660.88;5045180;28;20091;-47
2021/01/06 00:16:55;;;;;;;63.05;21.38;;;;;;;0.23;100.00;95666.34;5042403;28;20041;-51
2021/01/06 00:19:22;;;;;;;53.22;19.75;;;;;;;0.23;100.00;95671.53;5041668;28;20190;-46
2021/01/06 00:21:49;;;;;;;53.50;18.73;;;;;;;0.19;100.00;95670.09;5043199;28;20045;-49
2021/01/06 00:24:17;;;;;;;51.88;19.55;;;;;;;0.22;100.00;95664.69;5042911;28;20037;-47
2021/01/06 00:26:44;;;;;;;59.38;19.13;;;;;;;0.13;100.00;95662.72;5047394;28;20071;-48
2021/01/06 00:29:12;;;;;;;51.35;19.60;;;;;;;0.36;100.00;95660.38;5044892;28;20123;-49
2021/01/06 00:31:42;;;;;;;57.50;21.55;;;;;;;0.20;100.00;95663.97;5041888;28;20128;-45
2021/01/06 00:34:09;;;;;;;55.45;20.58;;;;;;;0.20;100.00;95668.31;5045560;28;20086;-50
2021/01/06 00:36:37;;;;;;;55.85;20.58;;;;;;;0.19;100.00;95662.31;5042861;28;20042;-49
2021/01/06 00:39:05;;;;;;;52.45;19.23;;;;;;;0.28;100.00;95662.66;5042277;28;20063;-45
2021/01/06 00:41:35;;;;;;;50.97;18.23;;;;;;;0.19;100.00;95658.91;5040855;28;20095;-44
2021/01/06 00:44:03;;;;;;;59.23;20.23;;;;;;;0.25;100.00;95657.66;5039728;28;20057;-44
2021/01/06 00:46:33;;;;;;;51.15;17.88;;;;;;;0.18;100.00;95660.66;5043379;28;20337;-46
2021/01/06 00:49:04;;;;;;;53.30;18.08;;;;;;;0.22;100.00;95654.34;5046931;28;20064;-45
2021/01/06 00:51:32;;;;;;;61.25;20.67;;;;;;;0.28;100.00;95654.88;5037626;28;20045;-48
2021/01/06 00:54:02;;;;;;;58.42;19.60;;;;;;;0.28;100.00;95641.91;5036162;28;20133;-49
2021/01/06 00:56:32;;;;;;;53.67;18.48;;;;;;;0.27;100.00;95643.66;5040887;28;20041;-49
2021/01/06 00:59:00;;;;;;;50.30;17.85;;;;;;;0.22;100.00;95648.31;5042958;28;20054;-46
2021/01/06 01:01:28;;;;;;;53.00;19.35;;;;;;;0.15;100.00;95652.25;5038868;28;20043;-51
2021/01/06 01:03:58;;;;;;;58.03;20.40;;;;;;;0.23;100.00;95647.38;5040412;28;23527;-48
2021/01/06 01:06:28;;;;;;;62.05;19.02;;;;;;;0.26;100.00;95646.34;5029454;28;20051;-44
2021/01/06 01:08:55;;;;;;;60.28;19.67;;;;;;;0.20;100.00;95647.59;5043199;28;20044;-47
2021/01/06 01:11:22;;;;;;;55.97;19.23;;;;;;;0.26;100.00;95652.38;5048708;28;20499;-47
2021/01/06 01:13:50;;;;;;;59.50;19.55;;;;;;;0.38;100.00;95659.34;5039797;28;20534;-49
2021/01/06 01:16:18;;;;;;;57.38;20.05;;;;;;;0.49;99.82;95661.22;5038233;28;20072;-49
2021/01/06 01:18:45;;;;;;;61.15;20.25;;;;;;;0.52;99.66;95655.81;5045196;28;20053;-48
2021/01/06 01:21:12;;;;;;;61.88;18.45;;;;;;;0.38;100.00;95648.13;5036132;28;20167;-46
2021/01/06 01:23:39;;;;;;;56.63;17.95;;;;;;;0.35;100.00;95649.19;5041661;28;20499;-47
2021/01/06 01:26:06;;;;;;;67.43;20.20;;;;;;;0.29;100.00;95639.19;5047195;28;20497;-46
2021/01/06 01:28:33;;;;;;;67.60;19.30;;;;;;;0.18;100.00;95637.34;5039905;28;20053;-50
2021/01/06 01:31:00;;;;;;;49.20;15.85;;;;;;;0.16;100.00;95640.94;5040142;28;20133;-48
2021/01/06 01:33:28;;;;;;;60.40;18.10;;;;;;;0.17;100.00;95637.41;5043193;28;20126;-46
2021/01/06 01:35:56;;;;;;;61.75;18.23;;;;;;;0.16;100.00;95639.19;5043698;28;20045;-47
2021/01/06 01:38:26;;;;;;;60.95;20.13;;;;;;;0.13;100.00;95631.59;5042881;28;20049;-44
2021/01/06 01:40:59;;;;;;;64.78;19.52;;;;;;;0.20;100.00;95625.06;5041144;28;20041;-45
2021/01/06 01:43:27;;;;;;;68.32;19.05;;;;;;;0.16;100.00;95628.81;5042704;28;20080;-46
2021/01/06 01:46:35;;;;;;;58.10;17.95;;;;;;;0.23;100.00;95637.00;5041973;28;20064;-46
2021/01/06 01:49:04;;;;;;;74.15;21.73;;;;;;;0.35;100.00;95635.38;5041731;28;20702;-45
2021/01/06 01:51:36;;;;;;;69.57;20.20;;;;;;;0.29;100.00;95625.41;5038359;28;20272;-48
2021/01/06 01:54:05;;;;;;;71.80;20.92;;;;;;;0.25;100.00;95627.38;5044060;28;20521;-48
2021/01/06 01:56:37;;;;;;;76.93;20.00;;;;;;;0.12;100.00;95624.78;5044257;28;20123;-47
2021/01/06 01:59:07;;;;;;;72.63;20.63;;;;;;;0.13;100.00;95628.19;5051040;28;20053;-44
2021/01/06 02:01:35;;;;;;;75.93;21.80;;;;;;;0.14;100.00;95630.69;5045977;28;20037;-46
2021/01/06 02:04:06;;;;;;;74.75;21.30;;;;;;;0.15;100.00;95621.97;5047887;28;20046;-47
2021/01/06 02:06:36;;;;;;;62.05;16.05;;;;;;;0.10;100.00;95625.78;5045829;28;20040;-45
2021/01/06 02:09:09;;;;;;;73.53;21.90;;;;;;;-0.02;100.00;95622.25;5048264;28;20521;-49
2021/01/06 02:11:40;;;;;;;75.38;22.33;;;;;;;0.13;100.00;95617.81;5047997;28;20070;-50
2021/01/06 02:14:10;;;;;;;64.57;18.08;;;;;;;0.06;100.00;95625.16;5045587;28;20048;-48
2021/01/06 02:16:44;;;;;;;74.50;22.10;;;;;;;0.01;100.00;95616.88;5043032;28;20053;-46
2021/01/06 02:19:12;;;;;;;79.72;21.75;;;;;;;0.05;100.00;95623.50;5043267;28;20051;-49
2021/01/06 02:21:39;;;;;;;81.32;22.08;;;;;;;0.12;100.00;95617.00;5049585;28;20045;-50
2021/01/06 02:24:07;;;;;;;89.25;23.13;;;;;;;-0.03;100.00;95623.19;5041841;28;20099;-47
2021/01/06 02:26:35;;;;;;;84.32;21.00;;;;;;;0.02;100.00;95612.53;5038759;28;20073;-45
2021/01/06 02:29:02;;;;;;;78.25;21.38;;;;;;;0.06;100.00;95611.38;5048398;28;20503;-47
2021/01/06 02:31:30;;;;;;;80.60;21.58;;;;;;;0.04;100.00;95608.91;5041471;28;20428;-49
2021/01/06 02:34:22;;;;;;;77.32;21.38;;;;;;;-0.05;100.00;95610.31;5047472;28;20124;-45
2021/01/06 02:36:50;;;;;;;67.82;20.65;;;;;;;-0.06;100.00;95613.03;5041148;28;20085;-47
2021/01/06 02:39:17;;;;;;;79.18;22.20;;;;;;;-0.05;100.00;95605.13;5041541;28;20049;-48
2021/01/06 02:41:46;;;;;;;69.55;19.30;;;;;;;-0.07;100.00;95611.34;5047425;28;20041;-53
2021/01/06 02:44:14;;;;;;;81.30;21.27;;;;;;;-0.05;100.00;95614.69;5041908;28;20073;-45
2021/01/06 02:46:42;;;;;;;82.40;21.20;;;;;;;0.01;100.00;95611.69;5043118;28;20095;-45
2021/01/06 02:49:09;;;;;;;70.25;20.77;;;;;;;-0.03;100.00;95607.66;5044540;28;20128;-50
2021/01/06 02:51:39;;;;;;;73.55;21.55;;;;;;;-0.03;100.00;95607.66;5047548;28;20065;-48
2021/01/06 02:54:10;;;;;;;77.05;20.75;;;;;;;-0.02;100.00;95604.13;5039526;28;20045;-45
2021/01/06 02:56:38;;;;;;;89.20;22.88;;;;;;;-0.02;100.00;95597.16;5040740;28;20049;-49
2021/01/06 02:59:10;;;;;;;76.43;20.83;;;;;;;-0.09;100.00;95593.31;5044901;28;20128;-47
2021/01/06 03:01:40;;;;;;;68.18;19.63;;;;;;;-0.10;100.00;95593.44;5044145;28;20049;-46
2021/01/06 03:04:10;;;;;;;72.97;21.97;;;;;;;-0.08;100.00;95592.38;5044024;28;20451;-47
2021/01/06 03:06:41;;;;;;;77.97;21.65;;;;;;;-0.08;100.00;95589.78;5049441;28;20048;-45
2021/01/06 03:09:23;;;;;;;83.15;22.02;;;;;;;-0.14;100.00;95590.19;5040239;28;20039;-46
2021/01/06 03:11:50;;;;;;;79.43;21.65;;;;;;;-0.19;100.00;95584.50;5042258;28;21313;-50
2021/01/06 03:14:17;;;;;;;83.65;23.48;;;;;;;-0.19;100.00;95586.25;5047298;28;20450;-44
2021/01/06 03:16:44;;;;;;;80.75;23.23;;;;;;;-0.13;100.00;95585.88;5043156;28;20045;-49
2021/01/06 03:19:12;;;;;;;85.47;24.13;;;;;;;-0.13;100.00;95586.69;5041619;28;20041;-48
2021/01/06 03:21:40;;;;;;;79.97;22.13;;;;;;;-0.12;100.00;95583.16;5047205;28;20065;-47
2021/01/06 03:24:09;;;;;;;90.30;23.23;;;;;;;-0.11;100.00;95587.41;5038048;28;20079;-48
2021/01/06 03:26:37;;;;;;;92.28;24.67;;;;;;;-0.13;100.00;95586.69;5046532;28;20503;-45
2021/01/06 03:29:05;;;;;;;83.53;22.60;;;;;;;-0.19;100.00;95583.66;5049384;28;20526;-51
2021/01/06 03:31:35;;;;;;;88.05;22.95;;;;;;;-0.27;100.00;95582.41;5036826;28;20117;-44
2021/01/06 03:34:05;;;;;;;85.28;22.63;;;;;;;-0.23;100.00;95575.28;5044789;28;20056;-48
2021/01/06 03:36:37;;;;;;;84.93;24.17;;;;;;;-0.29;100.00;95581.66;5044352;28;20063;-44
2021/01/06 03:39:08;;;;;;;87.03;23.38;;;;;;;-0.15;100.00;95582.53;5040918;28;20186;-45
2021/01/06 03:41:35;;;;;;;;;;;;;;;-0.16;100.00;95579.13;5037651;28;20095;-49
2021/01/06 03:44:06;;;;;;;74.65;21.08;;;;;;;-0.28;100.00;95580.72;5047081;28;19932;-52
2021/01/06 03:46:35;;;;;;;84.72;21.85;;;;;;;-0.15;100.00;95582.53;5045593;28;20128;-44
2021/01/06 03:49:05;;;;;;;83.80;21.90;;;;;;;-0.12;100.00;95580.56;5040680;28;20112;-47
2021/01/06 03:51:37;;;;;;;70.93;20.65;;;;;;;-0.22;100.00;95573.50;5040416;28;20049;-47
2021/01/06 03:54:14;;;;;;;76.35;20.65;;;;;;;-0.22;100.00;95573.50;5046557;28;20040;-45
2021/01/06 03:56:42;;;;;;;74.38;21.80;;;;;;;-0.25;100.00;95562.41;5040870;28;20103;-47
2021/01/06 03:59:13;;;;;;;87.03;22.48;;;;;;;-0.10;100.00;95572.72;5041104;28;20446;-47
2021/01/06 04:01:50;;;;;;;86.78;23.30;;;;;;;-0.08;100.00;95574.25;5041514;28;20046;-44
2021/01/06 04:04:21;;;;;;;82.55;22.30;;;;;;;-0.07;100.00;95575.06;5042792;28;20040;-46
2021/01/06 04:06:50;;;;;;;91.95;25.70;;;;;;;-0.07;100.00;95575.06;5043974;28;20049;-45
2021/01/06 04:09:22;;;;;;;84.80;22.55;;;;;;;-0.10;100.00;95564.94;5038855;28;20044;-49
2021/01/06 04:12:01;;;;;;;78.50;21.05;;;;;;;-0.06;100.00;95571.56;5043778;28;21152;-46
2021/01/06 04:15:17;;;;;;;83.60;23.33;;;;;;;-0.09;100.00;95567.41;5050451;28;20585;-46
2021/01/06 04:17:46;;;;;;;87.45;23.08;;;;;;;-0.23;100.00;95570.09;5031977;28;20092;-46
2021/01/06 04:20:28;;;;;;;74.72;21.85;;;;;;;-0.32;100.00;95566.31;5045431;28;20102;-46
2021/01/06 04:22:57;;;;;;;82.40;19.70;;;;;;;-0.27;100.00;95556.50;5043107;28;20061;-45
2021/01/06 04:25:26;;;;;;;84.55;23.17;;;;;;;-0.24;100.00;95558.06;5041751;28;20053;-46
2021/01/06 04:27:56;;;;;;;98.30;23.88;;;;;;;-0.23;100.00;95558.91;5043368;28;20128;-48
2021/01/06 04:30:30;;;;;;;84.60;21.35;;;;;;;-0.27;100.00;95559.09;5045902;28;20526;-45
2021/01/06 04:32:58;;;;;;;93.38;23.38;;;;;;;-0.16;100.00;95560.16;5037193;28;20033;-46
2021/01/06 04:35:27;;;;;;;92.88;24.50;;;;;;;-0.19;100.00;95560.34;5043189;28;20120;-48
2021/01/06 04:37:54;;;;;;;88.65;21.83;;;;;;;-0.17;100.00;95553.28;5041561;28;20064;-46
2021/01/06 04:40:23;;;;;;;69.80;17.75;;;;;;;-0.29;100.00;95558.34;5047595;28;20405;-49
2021/01/06 04:42:51;;;;;;;62.15;16.67;;;;;;;-0.43;100.00;95562.78;5039759;28;20092;-44
2021/01/06 04:45:20;;;;;;;90.25;21.85;;;;;;;-0.39;100.00;95553.88;5036782;28;20133;-45
2021/01/06 04:48:27;;;;;;;85.47;22.85;;;;;;;-0.43;100.00;95545.50;5039416;28;20099;-47
2021/01/06 04:51:12;;;;;;;80.63;20.48;;;;;;;-0.40;100.00;95549.66;5028632;28;20049;-49
2021/01/06 04:53:50;;;;;;;61.03;17.38;;;;;;;-0.46;100.00;95545.69;5041835;28;20512;-47
2021/01/06 04:56:36;;;;;;;77.07;21.38;;;;;;;-0.31;100.00;95554.19;5041893;28;20032;-47
2021/01/06 04:59:11;;;;;;;89.72;22.95;;;;;;;-0.44;100.00;95545.59;5042531;28;20049;-45
2021/01/06 05:02:02;;;;;;;95.35;24.83;;;;;;;-0.36;100.00;95556.28;5042431;28;20045;-46
2021/01/06 05:04:53;;;;;;;88.75;21.98;;;;;;;-0.36;100.00;95554.50;5038260;28;20049;-45
2021/01/06 05:07:29;;;;;;;80.28;22.00;;;;;;;-0.24;100.00;95558.06;5042153;28;20576;-48
2021/01/06 05:10:00;;;;;;;85.75;23.42;;;;;;;-0.30;100.00;95548.94;5038412;28;20045;-47
2021/01/06 05:12:30;;;;;;;85.25;23.67;;;;;;;-0.27;100.00;95545.31;5038184;28;20096;-45
2021/01/06 05:15:11;;;;;;;83.68;23.27;;;;;;;-0.31;100.00;95549.88;5041576;28;20064;-47
2021/01/06 05:17:40;;;;;;;87.45;24.35;;;;;;;-0.25;100.00;95546.03;5040374;28;20083;-47
2021/01/06 05:20:09;;;;;;;101.60;25.23;;;;;;;-0.31;100.00;95560.25;5041050;28;20044;-44
2021/01/06 05:22:36;;;;;;;90.80;26.27;;;;;;;-0.35;100.00;95557.94;5042679;28;20206;-45
2021/01/06 05:25:05;;;;;;;85.03;23.65;;;;;;;-0.36;100.00;95551.09;5044681;28;20057;-47
2021/01/06 05:27:37;;;;;;;82.43;20.63;;;;;;;-0.37;100.00;95557.22;5039456;28;20500;-49
2021/01/06 05:30:15;;;;;;;73.40;20.88;;;;;;;-0.41;100.00;95558.31;5041206;28;20083;-46
2021/01/06 05:32:43;;;;;;;80.35;22.13;;;;;;;-0.36;100.00;95558.88;5045130;28;20064;-45
2021/01/06 05:35:14;;;;;;;101.43;26.42;;;;;;;-0.33;100.00;95558.66;5038927;28;20132;-45
2021/01/06 05:37:43;;;;;;;81.88;22.27;;;;;;;-0.47;100.00;95556.97;5042025;28;20057;-48
2021/01/06 05:40:12;;;;;;;90.18;24.13;;;;;;;-0.35;100.00;95556.16;5033652;28;20034;-45
2021/01/06 05:42:42;;;;;;;69.00;18.80;;;;;;;-0.40;100.00;95557.41;5038671;28;20052;-46
2021/01/06 05:45:10;;;;;;;85.30;23.83;;;;;;;-0.37;100.00;95552.88;5036195;28;20090;-48
2021/01/06 05:47:40;;;;;;;60.22;16.70;;;;;;;-0.42;100.00;95559.25;5047118;28;20087;-44
2021/01/06 05:50:16;;;;;;;92.72;25.63;;;;;;;-0.46;100.00;95558.63;5031341;28;20087;-46
2021/01/06 05:52:44;;;;;;;82.30;22.83;;;;;;;-0.40;100.00;95560.00;5044101;28;20057;-45
2021/01/06 05:55:18;;;;;;;92.28;24.58;;;;;;;-0.47;100.00;95556.97;5040372;28;20041;-45
2021/01/06 05:57:48;;;;;;;70.13;20.88;;;;;;;-0.40;100.00;95560.84;5047526;28;20539;-45
2021/01/06 06:00:30;;;;;;;98.28;26.80;;;;;;;-0.37;100.00;95557.22;5038347;28;20073;-52
2021/01/06 06:03:05;;;;;;;64.93;19.40;;;;;;;-0.35;100.00;95561.34;5044343;28;20037;-45
2021/01/06 06:05:40;;;;;;;83.88;23.83;;;;;;;-0.45;100.00;95555.09;5043740;28;20110;-47
2021/01/06 06:08:40;;;;;;;75.60;22.38;;;;;;;-0.45;100.00;95562.88;5045604;28;20045;-49
2021/01/06 06:11:37;;;;;;;54.28;16.85;;;;;;;-0.46;100.00;95557.81;5043201;28;20037;-45
2021/01/06 06:14:40;;;;;;;99.97;26.13;;;;;;;-0.42;100.00;95554.09;5037545;28;20048;-45
2021/01/06 06:17:12;;;;;;;90.05;24.60;;;;;;;-0.43;100.00;95558.44;4956745;28;20051;-44
2021/01/06 06:19:54;;;;;;;93.75;24.10;;;;;;;-0.50;100.00;95559.78;5027273;28;20045;-45
2021/01/06 06:22:24;;;;;;;98.75;25.65;;;;;;;-0.52;100.00;95556.44;5040294;28;20122;-44
2021/01/06 06:24:57;;;;;;;81.53;22.33;;;;;;;-0.52;100.00;95566.78;5045432;28;20536;-48
2021/01/06 06:27:45;;;;;;;70.20;19.20;;;;;;;-0.54;100.00;95556.53;5042785;28;20091;-49
2021/01/06 06:30:25;;;;;;;80.60;22.58;;;;;;;-0.58;100.00;95559.44;5040036;28;20122;-49
2021/01/06 06:32:52;;;;;;;82.15;24.60;;;;;;;-0.59;100.00;95562.94;5041432;28;20059;-50
2021/01/06 06:35:22;;;;;;;75.60;22.92;;;;;;;-0.59;100.00;95565.53;5041509;28;20136;-47
2021/01/06 06:37:52;;;;;;;59.17;17.33;;;;;;;-0.70;100.00;95571.41;5038762;28;20041;-48
2021/01/06 06:40:19;;;;;;;56.75;18.30;;;;;;;-0.65;100.00;95574.53;5047827;28;20114;-45
2021/01/06 06:42:49;;;;;;;70.35;19.92;;;;;;;-0.70;100.00;95575.75;5041544;28;20049;-50
2021/01/06 06:45:30;;;;;;;85.53;21.90;;;;;;;-0.67;100.00;95572.97;5045326;28;20512;-47
2021/01/06 06:48:10;;;;;;;71.25;22.83;;;;;;;-0.62;100.00;95570.91;5042371;28;20098;-46
2021/01/06 06:50:51;;;;;;;51.17;16.10;;;;;;;-0.73;100.00;95572.41;5042546;28;20067;-50
2021/01/06 06:53:24;;;;;;;75.10;20.52;;;;;;;-0.62;100.00;95573.50;5044823;28;20458;-51
2021/01/06 06:55:57;;;;;;;69.90;21.52;;;;;;;-0.75;100.00;95581.22;5047829;28;20543;-44
2021/01/06 06:58:32;;;;;;;52.38;17.15;;;;;;;-0.72;100.00;95575.88;5043081;28;20554;-44
2021/01/06 07:01:05;;;;;;;63.47;19.63;;;;;;;-0.74;100.00;95581.13;5043663;28;20476;-49
2021/01/06 07:03:36;;;;;;;60.17;17.35;;;;;;;-0.77;100.00;95586.50;5044807;28;20053;-47
2021/01/06 07:06:03;;;;;;;40.17;13.27;;;;;;;-0.77;100.00;95591.66;5042944;28;20033;-47
2021/01/06 07:08:34;;;;;;;73.97;22.85;;;;;;;-0.57;100.00;95589.56;5043778;28;20071;-46
2021/01/06 07:11:03;;;;;;;54.97;16.27;;;;;;;-0.62;100.00;95589.03;5050191;28;20052;-49
2021/01/06 07:13:32;;;;;;;38.97;14.77;;;;;;;-0.62;100.00;95589.88;5039302;28;20045;-45
2021/01/06 07:16:01;;;;;;;54.95;17.15;;;;;;;-0.58;100.00;95586.16;5043511;28;20113;-52
2021/01/06 07:18:39;;;;;;;69.05;18.55;;;;;;;-0.60;100.00;95592.34;5038500;28;20124;-46
2021/01/06 07:21:28;;;;;;;29.42;9.85;;;;;;;-0.63;100.00;95592.56;5046788;28;20033;-44
2021/01/06 07:24:04;;;;;;;30.58;10.23;;;;;;;-0.64;100.00;95593.50;5045164;28;20045;-45
2021/01/06 07:26:34;;;;;;;43.80;15.63;;;;;;;-0.74;100.00;95595.81;5048292;28;20441;-47
2021/01/06 07:29:03;;;;;;;47.20;12.30;;;;;;;-0.61;100.00;95596.72;5038615;28;20506;-45
2021/01/06 07:31:37;;;;;;;39.55;12.95;;;;;;;-0.60;100.00;95602.72;5039824;28;20052;-45
2021/01/06 07:34:07;;;;;;;52.85;16.83;;;;;;;-0.60;100.00;95611.31;5044800;28;20083;-46
2021/01/06 07:36:47;;;;;;;52.28;15.43;;;;;;;-0.70;100.00;95614.56;5041913;28;20114;-46
2021/01/06 07:39:19;;;;;;;;;;;;;;;-0.67;100.00;95606.63;5040950;28;20071;-49
2021/01/06 07:41:46;;;;;;;41.97;13.82;;;;;;;-0.63;100.00;95614.09;5048092;28;20037;-50
2021/01/06 07:44:21;;;;;;;66.30;19.92;;;;;;;-0.49;100.00;95608.84;5049296;28;20106;-49
2021/01/06 07:46:56;;;;;;;49.22;15.65;;;;;;;-0.53;100.00;95615.16;5042004;28;20045;-47
2021/01/06 07:49:45;;;;;;;85.55;24.95;;;;;;;-0.46;100.00;95620.78;5046826;28;20061;-48
2021/01/06 07:52:20;;;;;;;73.55;23.85;;;;;;;-0.55;100.00;95631.72;5025817;28;20051;-45
2021/01/06 07:54:51;;;;;;;34.00;12.80;;;;;;;-0.50;100.00;95627.09;5041899;28;20045;-46
2021/01/06 07:57:23;;;;;;;45.47;15.77;;;;;;;-0.59;100.00;95630.25;5045727;28;20049;-48
2021/01/06 07:59:52;;;;;;;41.70;13.88;;;;;;;-0.53;100.00;95629.88;5037738;28;20500;-46
2021/01/06 08:02:26;;;;;;;56.95;18.00;;;;;;;-0.40;100.00;95625.56;5048454;28;20049;-46
2021/01/06 08:05:10;;;;;;;50.08;17.08;;;;;;;-0.49;100.00;95636.50;5070652;28;20045;-46
2021/01/06 08:07:38;;;;;;;53.95;17.10;;;;;;;-0.49;100.00;95628.75;5043473;28;20107;-48
2021/01/06 08:10:16;;;;;;;37.25;13.10;;;;;;;-0.50;100.00;95640.88;5042890;28;20084;-46
2021/01/06 08:12:43;;;;;;;32.40;11.65;;;;;;;-0.60;100.00;95633.78;5044030;28;20466;-46
2021/01/06 08:15:20;;;;;;;45.58;15.43;;;;;;;-0.29;100.00;95636.06;5037901;28;20040;-44
2021/01/06 08:17:51;;;;;;;69.03;22.05;;;;;;;-0.37;100.00;95632.31;5044014;28;20037;-44
2021/01/06 08:20:21;;;;;;;47.13;16.42;;;;;;;-0.42;100.00;95631.78;5047272;28;20037;-48
2021/01/06 08:22:56;;;;;;;45.80;14.73;;;;;;;-0.28;100.00;95634.31;5036317;28;20048;-46
2021/01/06 08:25:28;;;;;;;56.47;16.02;;;;;;;-0.25;100.00;95634.13;5044341;28;20114;-47
2021/01/06 08:27:55;;;;;;;61.50;18.55;;;;;;;-0.02;100.00;95637.81;5042280;28;20784;-44
2021/01/06 08:30:24;;;;;;;59.50;19.40;;;;;;;-0.09;100.00;95639.13;5047859;28;20128;-50
2021/01/06 08:33:02;;;;;;;38.30;13.32;;;;;;;-0.32;100.00;95633.66;5039069;28;20152;-45
2021/01/06 08:35:31;;;;;;;52.30;15.80;;;;;;;-0.22;100.00;95641.69;5048794;28;20118;-50
2021/01/06 08:37:58;;;;;;;38.45;14.70;;;;;;;-0.19;100.00;95638.91;5038440;28;20046;-49
2021/01/06 08:40:30;;;;;;;41.17;13.82;;;;;;;-0.03;100.00;95636.97;5047618;28;20056;-47
2021/01/06 08:43:01;;;;;;;41.40;13.13;;;;;;;-0.07;100.00;95632.09;5043500;28;20132;-44
2021/01/06 08:45:31;;;;;;;46.30;14.57;;;;;;;-0.19;100.00;95632.91;5042665;28;20039;-46
2021/01/06 08:48:13;;;;;;;73.25;22.08;;;;;;;0.00;100.00;95638.56;5041712;28;20037;-46
2021/01/06 08:50:43;;;;;;;35.63;12.43;;;;;;;-0.08;100.00;95641.63;5043787;28;20675;-46
2021/01/06 08:53:12;;;;;;;40.38;13.57;;;;;;;-0.04;100.00;95640.47;5036641;28;20053;-46
2021/01/06 08:55:42;;;;;;;43.85;14.63;;;;;;;-0.03;100.00;95636.97;5043322;28;20042;-44
2021/01/06 08:58:11;;;;;;;55.85;20.30;;;;;;;0.01;100.00;95634.19;5043909;28;20041;-43
2021/01/06 09:00:39;;;;;;;30.67;11.60;;;;;;;-0.13;100.00;95640.28;5046918;28;20578;-44
2021/01/06 09:03:12;;;;;;;57.55;18.45;;;;;;;-0.11;100.00;95635.81;5044898;28;20407;-47
2021/01/06 09:05:46;;;;;;;42.47;14.65;;;;;;;-0.01;100.00;95642.88;5045195;28;20055;-47
2021/01/06 09:08:16;;;;;;;52.42;16.60;;;;;;;0.24;100.00;95643.84;5038765;28;20037;-49
2021/01/06 09:11:05;;;;;;;43.75;13.40;;;;;;;-0.03;100.00;95654.31;5040356;28;20041;-46
2021/01/06 09:13:35;;;;;;;40.72;14.95;;;;;;;-0.08;100.00;95640.78;5040713;28;20053;-47
2021/01/06 09:16:07;;;;;;;30.98;10.93;;;;;;;0.11;100.00;95648.22;5044263;28;20057;-45
2021/01/06 09:18:37;;;;;;;33.05;11.25;;;;;;;0.28;100.00;95658.28;5036540;28;20052;-46
2021/01/06 09:21:20;;;;;;;49.20;16.00;;;;;;;0.48;100.00;95654.34;5045236;28;20073;-48
2021/01/06 09:23:49;;;;;;;38.38;13.52;;;;;;;0.46;100.00;95657.06;5054194;28;20044;-48
2021/01/06 09:26:21;;;;;;;46.00;17.13;;;;;;;0.50;100.00;95656.84;5043262;28;20057;-48
2021/01/06 09:28:53;;;;;;;37.13;13.32;;;;;;;0.45;100.00;95657.19;5037096;28;20049;-47
2021/01/06 09:31:20;;;;;;;37.08;13.23;;;;;;;0.59;100.00;95664.84;5039544;28;20045;-49
2021/01/06 09:33:47;;;;;;;28.45;11.60;;;;;;;0.50;100.00;95664.63;5037818;28;20116;-50
2021/01/06 09:36:14;;;;;;;39.60;14.20;;;;;;;0.24;100.00;95682.75;5040475;28;20048;-48
2021/01/06 09:38:45;;;;;;;38.78;14.30;;;;;;;0.40;100.00;95673.03;5039552;28;20060;-48
2021/01/06 09:41:17;;;;;;;28.67;9.65;;;;;;;0.64;100.00;95675.75;5039179;28;20044;-47
2021/01/06 09:43:47;;;;;;;37.85;14.50;;;;;;;0.63;100.00;95681.88;5033327;28;20045;-58
2021/01/06 09:46:16;;;;;;;45.22;16.33;;;;;;;0.78;100.00;95672.22;5041500;28;20045;-56
2021/01/06 09:48:46;;;;;;;30.08;11.32;;;;;;;0.70;100.00;95672.72;5042842;28;20052;-56
2021/01/06 09:51:16;;;;;;;40.40;15.90;;;;;;;0.62;100.00;95682.81;5043267;28;20400;-54
2021/01/06 09:53:43;;;;;;;41.70;14.93;;;;;;;0.79;100.00;95680.81;5042989;28;20599;-58
2021/01/06 09:56:13;;;;;;;43.88;16.17;;;;;;;0.76;100.00;95683.63;5043010;28;20049;-56
2021/01/06 09:58:40;;;;;;;33.70;13.20;;;;;;;0.68;100.00;95681.56;5037407;28;20048;-55
2021/01/06 10:01:15;;;;;;;56.03;19.70;;;;;;;0.95;100.00;95677.06;5039710;28;20033;-57
2021/01/06 10:03:43;;;;;;;32.53;12.57;;;;;;;0.76;100.00;95679.28;5041929;28;20095;-56
2021/01/06 10:06:21;;;;;;;35.20;10.45;;;;;;;0.83;100.00;95677.09;5034810;28;20100;-57
2021/01/06 10:08:53;;;;;;;44.80;15.77;;;;;;;1.19;100.00;95676.31;5038406;28;20048;-53
2021/01/06 10:11:32;;;;;;;41.72;15.73;;;;;;;0.79;100.00;95678.22;5037812;28;20419;-57
2021/01/06 10:14:12;;;;;;;32.05;11.98;;;;;;;0.87;100.00;95674.19;5045004;28;20123;-55
2021/01/06 10:16:45;;;;;;;33.58;12.02;;;;;;;0.89;100.00;95677.50;5041022;28;20069;-52
2021/01/06 10:19:25;;;;;;;41.40;14.43;;;;;;;1.18;100.00;95666.88;5043176;28;20056;-55
2021/01/06 10:21:55;;;;;;;37.95;12.70;;;;;;;0.90;100.00;95673.97;5046494;28;20045;-57
2021/01/06 10:24:36;;;;;;;42.47;15.50;;;;;;;1.10;100.00;95676.94;5049694;28;20098;-57
2021/01/06 10:27:13;;;;;;;47.95;17.38;;;;;;;1.41;100.00;95671.31;5040329;28;20520;-54
2021/01/06 10:29:45;;;;;;;36.58;14.27;;;;;;;1.56;100.00;95671.16;5046310;28;20045;-55
2021/01/06 10:32:46;;;;;;;54.90;19.05;;;;;;;1.47;100.00;95664.00;5049154;28;20080;-56
2021/01/06 10:35:36;;;;;;;36.63;13.45;;;;;;;1.41;100.00;95662.66;5042974;28;20045;-56
2021/01/06 10:38:25;;;;;;;39.67;15.52;;;;;;;1.24;100.00;95665.59;5046679;28;20064;-58
2021/01/06 10:40:55;;;;;;;39.28;12.82;;;;;;;1.35;100.00;95658.75;5039428;28;20044;-54
2021/01/06 10:43:35;;;;;;;37.40;14.23;;;;;;;1.68;100.00;95662.47;5047656;28;20578;-58
2021/01/06 10:46:03;;;;;;;43.22;16.70;;;;;;;1.96;98.21;95661.31;5044838;28;20095;-59
2021/01/06 10:48:43;;;;;;;35.72;13.50;;;;;;;1.53;98.39;95654.00;5041274;28;20388;-60
2021/01/06 10:51:10;;;;;;;39.28;14.85;;;;;;;1.60;99.24;95662.19;5034280;28;20041;-60
2021/01/06 10:53:39;;;;;;;33.90;12.93;;;;;;;1.79;99.57;95653.88;5042113;28;20076;-60
2021/01/06 10:56:08;;;;;;;32.70;10.52;;;;;;;1.51;99.19;95655.88;5052591;28;20097;-60
2021/01/06 10:58:43;;;;;;;36.97;14.00;;;;;;;1.74;98.78;95658.59;5043171;28;20515;-59
2021/01/06 11:01:38;;;;;;;37.90;13.50;;;;;;;1.84;95.54;95649.19;5046369;28;20128;-60
2021/01/06 11:04:21;;;;;;;34.33;12.98;;;;;;;1.65;96.73;95655.75;5044849;28;20044;-58
2021/01/06 11:06:52;;;;;;;44.00;16.52;;;;;;;2.20;95.92;95656.06;5045766;28;20072;-59
2021/01/06 11:09:49;;;;;;;51.55;18.42;;;;;;;2.24;94.88;95665.31;5045407;28;20045;-59
2021/01/06 11:12:32;;;;;;;43.85;16.85;;;;;;;1.96;94.73;95658.72;5044008;28;20106;-58
2021/01/06 11:15:19;;;;;;;42.60;15.48;;;;;;;1.69;95.88;95655.50;5050112;28;20121;-59
2021/01/06 11:18:03;;;;;;;33.17;12.90;;;;;;;2.06;97.85;95659.69;5044340;28;20037;-60
2021/01/06 11:20:34;;;;;;;34.70;14.57;;;;;;;1.93;96.79;95661.53;5044550;28;20077;-58
2021/01/06 11:23:22;;;;;;;38.95;12.48;;;;;;;2.52;94.08;95661.50;5044020;28;20393;-56
2021/01/06 11:25:50;;;;;;;53.00;17.88;;;;;;;2.29;94.09;95651.97;5043459;28;20455;-51
2021/01/06 11:28:30;;;;;;;38.90;13.32;;;;;;;2.21;93.80;95655.16;5044608;28;20535;-49
2021/01/06 11:31:21;;;;;;;46.03;17.08;;;;;;;2.33;93.75;95654.22;5046151;28;20447;-52
2021/01/06 11:33:50;;;;;;;44.75;18.48;;;;;;;1.96;94.47;95647.47;5042887;28;20450;-48
2021/01/06 11:36:29;;;;;;;20.35;9.32;;;;;;;1.65;96.35;95649.69;5042321;28;20045;-56
2021/01/06 11:38:58;;;;;;;38.53;14.45;;;;;;;1.92;95.22;95652.06;5042530;28;20099;-50
2021/01/06 11:41:56;;;;;;;27.65;11.68;;;;;;;2.04;94.82;95655.56;5050411;28;20103;-56